sensor_id;sensor_type;location;lat;lon;timestamp;pressure;altitude;pressure_sealevel;temperature;humidity
79686;BME280;69153;47.918;11.428;2024-03-17T00:00:20;95828.50;;;11.27;63.91
79686;BME280;69153;47.918;11.428;2024-03-17T00:02:46;95824.00;;;11.24;64.07
79686;BME280;69153;47.918;11.428;2024-03-17T00:05:12;95832.97;;;11.30;63.83
79686;BME280;69153;47.918;11.428;2024-03-17T00:07:41;95839.13;;;11.27;64.07
79686;BME280;69153;47.918;11.428;2024-03-17T00:10:08;95838.72;;;11.29;64.10
79686;BME280;69153;47.918;11.428;2024-03-17T00:12:34;95840.13;;;11.33;63.81
79686;BME280;69153;47.918;11.428;2024-03-17T00:15:00;95833.31;;;11.32;64.12
79686;BME280;69153;47.918;11.428;2024-03-17T00:17:25;95834.03;;;11.36;63.92
79686;BME280;69153;47.918;11.428;2024-03-17T00:19:51;95828.78;;;11.33;64.20
79686;BME280;69153;47.918;11.428;2024-03-17T00:22:17;95836.72;;;11.33;64.14
79686;BME280;69153;47.918;11.428;2024-03-17T00:24:43;95830.97;;;11.38;64.02
79686;BME280;69153;47.918;11.428;2024-03-17T00:27:10;95834.47;;;11.31;64.35
79686;BME280;69153;47.918;11.428;2024-03-17T00:29:39;95819.50;;;11.21;64.43
79686;BME280;69153;47.918;11.428;2024-03-17T00:32:05;95824.41;;;10.99;65.38
79686;BME280;69153;47.918;11.428;2024-03-17T00:34:32;95821.03;;;10.95;65.58
79686;BME280;69153;47.918;11.428;2024-03-17T00:36:57;95817.47;;;11.05;65.18
79686;BME280;69153;47.918;11.428;2024-03-17T00:39:25;95822.69;;;11.13;64.80
79686;BME280;69153;47.918;11.428;2024-03-17T00:41:51;95822.19;;;11.18;64.47
79686;BME280;69153;47.918;11.428;2024-03-17T00:44:16;95815.69;;;11.22;64.28
79686;BME280;69153;47.918;11.428;2024-03-17T00:46:42;95818.66;;;11.28;64.29
79686;BME280;69153;47.918;11.428;2024-03-17T00:49:09;95812.28;;;11.22;64.42
79686;BME280;69153;47.918;11.428;2024-03-17T00:51:36;95810.03;;;11.20;64.57
79686;BME280;69153;47.918;11.428;2024-03-17T00:54:02;95818.28;;;11.26;64.30
79686;BME280;69153;47.918;11.428;2024-03-17T00:56:27;95810.75;;;11.24;64.39
79686;BME280;69153;47.918;11.428;2024-03-17T00:58:53;95818.66;;;11.28;64.39
79686;BME280;69153;47.918;11.428;2024-03-17T01:01:19;95814.00;;;11.32;64.22
79686;BME280;69153;47.918;11.428;2024-03-17T01:03:45;95813.25;;;11.31;63.97
79686;BME280;69153;47.918;11.428;2024-03-17T01:06:11;95815.50;;;11.33;64.08
79686;BME280;69153;47.918;11.428;2024-03-17T01:08:37;95807.16;;;11.34;63.89
79686;BME280;69153;47.918;11.428;2024-03-17T01:11:02;95812.94;;;11.29;63.98
79686;BME280;69153;47.918;11.428;2024-03-17T01:13:28;95816.75;;;11.28;64.16
79686;BME280;69153;47.918;11.428;2024-03-17T01:15:54;95810.69;;;11.28;64.04
79686;BME280;69153;47.918;11.428;2024-03-17T01:18:19;95808.09;;;11.24;64.21
79686;BME280;69153;47.918;11.428;2024-03-17T01:20:45;95809.19;;;11.27;64.17
79686;BME280;69153;47.918;11.428;2024-03-17T01:23:11;95805.38;;;11.28;64.13
79686;BME280;69153;47.918;11.428;2024-03-17T01:25:38;95806.19;;;11.25;64.28
79686;BME280;69153;47.918;11.428;2024-03-17T01:28:04;95800.53;;;11.23;64.30
79686;BME280;69153;47.918;11.428;2024-03-17T01:30:30;95796.81;;;11.17;64.88
79686;BME280;69153;47.918;11.428;2024-03-17T01:32:58;95792.72;;;11.16;64.58
79686;BME280;69153;47.918;11.428;2024-03-17T01:35:25;95796.91;;;11.13;64.38
79686;BME280;69153;47.918;11.428;2024-03-17T01:37:54;95788.94;;;11.13;64.18
79686;BME280;69153;47.918;11.428;2024-03-17T01:40:19;95798.06;;;11.12;64.10
79686;BME280;69153;47.918;11.428;2024-03-17T01:42:46;95798.00;;;11.16;63.83
79686;BME280;69153;47.918;11.428;2024-03-17T01:45:29;95786.75;;;11.08;64.08
79686;BME280;69153;47.918;11.428;2024-03-17T01:47:57;95784.50;;;11.06;64.25
79686;BME280;69153;47.918;11.428;2024-03-17T01:50:36;95787.91;;;11.07;64.25
79686;BME280;69153;47.918;11.428;2024-03-17T01:53:05;95783.75;;;11.06;64.03
79686;BME280;69153;47.918;11.428;2024-03-17T01:55:32;95783.84;;;11.02;64.11
79686;BME280;69153;47.918;11.428;2024-03-17T01:57:59;95785.34;;;11.03;64.20
79686;BME280;69153;47.918;11.428;2024-03-17T02:00:24;95772.88;;;11.00;64.39
79686;BME280;69153;47.918;11.428;2024-03-17T02:02:52;95771.44;;;10.96;64.84
79686;BME280;69153;47.918;11.428;2024-03-17T02:05:17;95770.56;;;10.79;65.32
79686;BME280;69153;47.918;11.428;2024-03-17T02:07:43;95772.28;;;10.66;66.07
79686;BME280;69153;47.918;11.428;2024-03-17T02:10:09;95771.28;;;10.56;66.80
79686;BME280;69153;47.918;11.428;2024-03-17T02:12:36;95772.28;;;10.66;66.23
79686;BME280;69153;47.918;11.428;2024-03-17T02:15:02;95764.28;;;10.69;66.14
79686;BME280;69153;47.918;11.428;2024-03-17T02:17:32;95771.28;;;10.56;66.36
79686;BME280;69153;47.918;11.428;2024-03-17T02:19:58;95763.69;;;10.58;66.52
79686;BME280;69153;47.918;11.428;2024-03-17T02:22:23;95765.94;;;10.60;66.51
79686;BME280;69153;47.918;11.428;2024-03-17T02:24:49;95760.13;;;10.68;66.20
79686;BME280;69153;47.918;11.428;2024-03-17T02:27:15;95755.91;;;10.71;66.02
79686;BME280;69153;47.918;11.428;2024-03-17T02:29:40;95750.97;;;10.73;65.89
79686;BME280;69153;47.918;11.428;2024-03-17T02:32:07;95756.31;;;10.69;65.87
79686;BME280;69153;47.918;11.428;2024-03-17T02:34:37;95749.16;;;10.66;66.19
79686;BME280;69153;47.918;11.428;2024-03-17T02:37:03;95737.38;;;10.71;65.74
79686;BME280;69153;47.918;11.428;2024-03-17T02:39:31;95735.47;;;10.71;65.72
79686;BME280;69153;47.918;11.428;2024-03-17T02:41:57;95739.22;;;10.74;65.71
79686;BME280;69153;47.918;11.428;2024-03-17T02:44:22;95738.13;;;10.71;65.46
79686;BME280;69153;47.918;11.428;2024-03-17T02:46:48;95734.38;;;10.69;65.35
79686;BME280;69153;47.918;11.428;2024-03-17T02:49:13;95732.06;;;10.71;65.33
79686;BME280;69153;47.918;11.428;2024-03-17T02:51:41;95727.91;;;10.70;65.20
79686;BME280;69153;47.918;11.428;2024-03-17T02:54:07;95728.72;;;10.67;65.02
79686;BME280;69153;47.918;11.428;2024-03-17T02:56:32;95720.94;;;10.56;65.29
79686;BME280;69153;47.918;11.428;2024-03-17T02:58:58;95721.88;;;10.46;65.59
79686;BME280;69153;47.918;11.428;2024-03-17T03:01:24;95724.88;;;10.48;65.20
79686;BME280;69153;47.918;11.428;2024-03-17T03:03:49;95726.38;;;10.49;65.28
79686;BME280;69153;47.918;11.428;2024-03-17T03:06:15;95719.84;;;10.54;64.89
79686;BME280;69153;47.918;11.428;2024-03-17T03:08:43;95721.34;;;10.55;64.96
79686;BME280;69153;47.918;11.428;2024-03-17T03:11:11;95724.28;;;10.60;64.56
79686;BME280;69153;47.918;11.428;2024-03-17T03:13:42;95722.75;;;10.63;64.89
79686;BME280;69153;47.918;11.428;2024-03-17T03:16:12;95722.34;;;10.64;64.73
79686;BME280;69153;47.918;11.428;2024-03-17T03:18:39;95721.16;;;10.65;65.06
79686;BME280;69153;47.918;11.428;2024-03-17T03:21:05;95723.41;;;10.67;65.08
79686;BME280;69153;47.918;11.428;2024-03-17T03:23:32;95718.47;;;10.69;65.07
79686;BME280;69153;47.918;11.428;2024-03-17T03:25:59;95714.66;;;10.70;65.08
79686;BME280;69153;47.918;11.428;2024-03-17T03:28:26;95715.94;;;10.62;65.32
79686;BME280;69153;47.918;11.428;2024-03-17T03:30:52;95715.88;;;10.65;65.13
79686;BME280;69153;47.918;11.428;2024-03-17T03:33:19;95706.38;;;10.68;65.11
79686;BME280;69153;47.918;11.428;2024-03-17T03:35:45;95708.00;;;10.62;65.24
79686;BME280;69153;47.918;11.428;2024-03-17T03:38:11;95712.19;;;10.59;65.50
79686;BME280;69153;47.918;11.428;2024-03-17T03:40:39;95714.09;;;10.59;65.07
79686;BME280;69153;47.918;11.428;2024-03-17T03:43:05;95715.78;;;10.49;65.29
79686;BME280;69153;47.918;11.428;2024-03-17T03:45:31;95713.88;;;10.50;65.41
79686;BME280;69153;47.918;11.428;2024-03-17T03:47:56;95718.03;;;10.51;65.18
79686;BME280;69153;47.918;11.428;2024-03-17T03:50:22;95710.50;;;10.46;65.44
79686;BME280;69153;47.918;11.428;2024-03-17T03:52:48;95717.00;;;10.41;65.86
79686;BME280;69153;47.918;11.428;2024-03-17T03:55:16;95711.25;;;10.46;65.71
79686;BME280;69153;47.918;11.428;2024-03-17T03:57:43;95704.06;;;10.47;66.22
79686;BME280;69153;47.918;11.428;2024-03-17T04:00:12;95707.88;;;10.46;66.13
79686;BME280;69153;47.918;11.428;2024-03-17T04:02:39;95706.72;;;10.47;65.96
79686;BME280;69153;47.918;11.428;2024-03-17T04:05:05;95702.22;;;10.44;66.12
79686;BME280;69153;47.918;11.428;2024-03-17T04:07:31;95709.47;;;10.39;66.11
79686;BME280;69153;47.918;11.428;2024-03-17T04:09:57;95708.00;;;10.38;65.94
79686;BME280;69153;47.918;11.428;2024-03-17T04:12:24;95713.69;;;10.37;65.81
79686;BME280;69153;47.918;11.428;2024-03-17T04:14:50;95705.38;;;10.35;65.99
79686;BME280;69153;47.918;11.428;2024-03-17T04:17:19;95710.38;;;10.29;66.39
79686;BME280;69153;47.918;11.428;2024-03-17T04:19:50;95716.41;;;10.30;66.52
79686;BME280;69153;47.918;11.428;2024-03-17T04:22:16;95710.34;;;10.33;66.79
79686;BME280;69153;47.918;11.428;2024-03-17T04:24:43;95698.94;;;10.36;66.75
79686;BME280;69153;47.918;11.428;2024-03-17T04:27:09;95708.84;;;10.32;66.85
79686;BME280;69153;47.918;11.428;2024-03-17T04:29:34;95707.28;;;10.34;66.35
79686;BME280;69153;47.918;11.428;2024-03-17T04:32:01;95699.81;;;10.26;66.99
79686;BME280;69153;47.918;11.428;2024-03-17T04:34:27;95703.22;;;10.26;66.59
79686;BME280;69153;47.918;11.428;2024-03-17T04:36:53;95702.25;;;10.13;67.10
79686;BME280;69153;47.918;11.428;2024-03-17T04:39:22;95710.63;;;10.12;67.71
79686;BME280;69153;47.918;11.428;2024-03-17T04:41:47;95708.41;;;10.07;67.92
79686;BME280;69153;47.918;11.428;2024-03-17T04:44:13;95707.34;;;10.00;67.96
79686;BME280;69153;47.918;11.428;2024-03-17T04:46:39;95701.31;;;10.00;68.02
79686;BME280;69153;47.918;11.428;2024-03-17T04:49:05;95703.50;;;10.05;68.22
79686;BME280;69153;47.918;11.428;2024-03-17T04:51:30;95706.06;;;10.12;67.42
79686;BME280;69153;47.918;11.428;2024-03-17T04:53:59;95701.06;;;10.18;67.02
79686;BME280;69153;47.918;11.428;2024-03-17T04:56:25;95706.41;;;10.14;67.07
79686;BME280;69153;47.918;11.428;2024-03-17T04:58:50;95708.38;;;10.10;67.69
79686;BME280;69153;47.918;11.428;2024-03-17T05:01:16;95712.44;;;10.18;67.16
79686;BME280;69153;47.918;11.428;2024-03-17T05:03:42;95718.47;;;10.19;67.38
79686;BME280;69153;47.918;11.428;2024-03-17T05:06:07;95722.97;;;10.22;66.95
79686;BME280;69153;47.918;11.428;2024-03-17T05:08:34;95718.44;;;10.22;66.97
79686;BME280;69153;47.918;11.428;2024-03-17T05:11:04;95723.34;;;10.24;67.11
79686;BME280;69153;47.918;11.428;2024-03-17T05:13:31;95719.59;;;10.18;67.26
79686;BME280;69153;47.918;11.428;2024-03-17T05:15:57;95722.22;;;10.21;67.14
79686;BME280;69153;47.918;11.428;2024-03-17T05:18:26;95718.78;;;10.24;67.06
79686;BME280;69153;47.918;11.428;2024-03-17T05:21:05;95725.91;;;10.27;66.54
79686;BME280;69153;47.918;11.428;2024-03-17T05:23:36;95727.19;;;10.19;66.97
79686;BME280;69153;47.918;11.428;2024-03-17T05:26:04;95724.28;;;10.07;67.75
79686;BME280;69153;47.918;11.428;2024-03-17T05:28:30;95719.00;;;10.07;68.09
79686;BME280;69153;47.918;11.428;2024-03-17T05:30:56;95727.94;;;10.16;67.03
79686;BME280;69153;47.918;11.428;2024-03-17T05:33:24;95720.41;;;10.15;67.90
79686;BME280;69153;47.918;11.428;2024-03-17T05:38:22;95728.72;;;10.13;67.72
79686;BME280;69153;47.918;11.428;2024-03-17T05:41:05;95725.75;;;10.11;67.28
79686;BME280;69153;47.918;11.428;2024-03-17T05:43:36;95732.19;;;10.10;66.96
79686;BME280;69153;47.918;11.428;2024-03-17T05:46:10;95735.19;;;10.12;66.81
79686;BME280;69153;47.918;11.428;2024-03-17T05:48:38;95739.28;;;10.17;66.65
79686;BME280;69153;47.918;11.428;2024-03-17T05:51:09;95740.41;;;10.19;66.80
79686;BME280;69153;47.918;11.428;2024-03-17T05:53:36;95733.97;;;10.17;66.75
79686;BME280;69153;47.918;11.428;2024-03-17T05:56:04;95737.75;;;10.19;66.91
79686;BME280;69153;47.918;11.428;2024-03-17T05:58:30;95739.28;;;10.17;66.80
79686;BME280;69153;47.918;11.428;2024-03-17T06:00:56;95738.47;;;10.23;66.62
79686;BME280;69153;47.918;11.428;2024-03-17T06:03:21;95736.25;;;10.18;67.16
79686;BME280;69153;47.918;11.428;2024-03-17T06:05:48;95744.13;;;10.25;66.66
79686;BME280;69153;47.918;11.428;2024-03-17T06:08:14;95745.59;;;10.26;66.48
79686;BME280;69153;47.918;11.428;2024-03-17T06:10:45;95741.41;;;10.29;66.29
79686;BME280;69153;47.918;11.428;2024-03-17T06:13:12;95738.88;;;10.22;66.70
79686;BME280;69153;47.918;11.428;2024-03-17T06:15:39;95744.53;;;10.24;66.57
79686;BME280;69153;47.918;11.428;2024-03-17T06:18:05;95740.78;;;10.21;66.93
79686;BME280;69153;47.918;11.428;2024-03-17T06:20:34;95744.53;;;10.24;66.40
79686;BME280;69153;47.918;11.428;2024-03-17T06:23:00;95737.03;;;10.15;67.16
79686;BME280;69153;47.918;11.428;2024-03-17T06:25:26;95739.13;;;9.70;67.99
79686;BME280;69153;47.918;11.428;2024-03-17T06:27:53;95737.56;;;9.42;69.18
79686;BME280;69153;47.918;11.428;2024-03-17T06:30:19;95746.41;;;9.62;69.97
79686;BME280;69153;47.918;11.428;2024-03-17T06:32:46;95736.31;;;9.84;68.96
79686;BME280;69153;47.918;11.428;2024-03-17T06:35:12;95738.91;;;9.57;68.04
79686;BME280;69153;47.918;11.428;2024-03-17T06:37:41;95737.75;;;9.24;69.59
79686;BME280;69153;47.918;11.428;2024-03-17T06:40:13;95731.03;;;9.50;68.44
79686;BME280;69153;47.918;11.428;2024-03-17T06:42:38;95728.63;;;9.63;68.94
79686;BME280;69153;47.918;11.428;2024-03-17T06:45:05;95736.00;;;9.79;68.16
79686;BME280;69153;47.918;11.428;2024-03-17T06:47:31;95729.44;;;9.90;67.89
79686;BME280;69153;47.918;11.428;2024-03-17T06:49:56;95731.81;;;10.12;66.96
79686;BME280;69153;47.918;11.428;2024-03-17T06:52:22;95736.56;;;10.24;67.11
79686;BME280;69153;47.918;11.428;2024-03-17T06:54:47;95734.75;;;10.44;66.92
79686;BME280;69153;47.918;11.428;2024-03-17T06:57:16;95733.63;;;10.68;66.77
79686;BME280;69153;47.918;11.428;2024-03-17T06:59:42;95740.59;;;10.82;65.94
79686;BME280;69153;47.918;11.428;2024-03-17T07:02:10;95745.28;;;10.74;65.34
79686;BME280;69153;47.918;11.428;2024-03-17T07:04:36;95746.69;;;10.56;65.96
79686;BME280;69153;47.918;11.428;2024-03-17T07:07:02;95739.03;;;10.61;66.43
79686;BME280;69153;47.918;11.428;2024-03-17T07:09:28;95746.69;;;10.79;65.42
79686;BME280;69153;47.918;11.428;2024-03-17T07:11:53;95746.00;;;10.98;64.84
79686;BME280;69153;47.918;11.428;2024-03-17T07:14:19;95746.97;;;11.08;64.08
79686;BME280;69153;47.918;11.428;2024-03-17T07:16:44;95743.88;;;10.66;64.71
79686;BME280;69153;47.918;11.428;2024-03-17T07:19:10;95747.09;;;10.78;64.77
79686;BME280;69153;47.918;11.428;2024-03-17T07:21:36;95746.13;;;10.91;63.06
79686;BME280;69153;47.918;11.428;2024-03-17T07:24:02;95748.31;;;10.96;63.01
79686;BME280;69153;47.918;11.428;2024-03-17T07:26:30;95751.47;;;11.11;63.13
79686;BME280;69153;47.918;11.428;2024-03-17T07:28:56;95749.72;;;11.44;62.12
79686;BME280;69153;47.918;11.428;2024-03-17T07:31:22;95751.06;;;11.75;61.06
79686;BME280;69153;47.918;11.428;2024-03-17T07:33:47;95746.59;;;12.08;60.76
79686;BME280;69153;47.918;11.428;2024-03-17T07:36:15;95742.66;;;11.57;61.58
79686;BME280;69153;47.918;11.428;2024-03-17T07:38:40;95747.91;;;11.41;61.65
79686;BME280;69153;47.918;11.428;2024-03-17T07:41:08;95729.25;;;12.04;61.95
79686;BME280;69153;47.918;11.428;2024-03-17T07:43:36;95729.63;;;12.71;59.42
79686;BME280;69153;47.918;11.428;2024-03-17T07:46:12;95719.69;;;13.49;57.20
79686;BME280;69153;47.918;11.428;2024-03-17T07:48:40;95717.13;;;14.12;56.07
79686;BME280;69153;47.918;11.428;2024-03-17T07:51:08;95723.97;;;14.64;54.35
79686;BME280;69153;47.918;11.428;2024-03-17T07:53:36;95732.28;;;15.35;50.86
79686;BME280;69153;47.918;11.428;2024-03-17T07:56:09;95726.53;;;15.80;50.63
79686;BME280;69153;47.918;11.428;2024-03-17T07:58:37;95724.63;;;15.24;51.04
79686;BME280;69153;47.918;11.428;2024-03-17T08:01:08;95716.13;;;14.82;51.51
79686;BME280;69153;47.918;11.428;2024-03-17T08:03:37;95715.56;;;15.22;50.87
79686;BME280;69153;47.918;11.428;2024-03-17T08:06:05;95711.56;;;14.70;51.67
79686;BME280;69153;47.918;11.428;2024-03-17T08:08:32;95712.44;;;14.42;52.50
79686;BME280;69153;47.918;11.428;2024-03-17T08:11:01;95708.72;;;14.01;53.92
79686;BME280;69153;47.918;11.428;2024-03-17T08:13:31;95710.19;;;14.02;54.77
79686;BME280;69153;47.918;11.428;2024-03-17T08:16:07;95703.06;;;13.99;54.59
79686;BME280;69153;47.918;11.428;2024-03-17T08:18:36;95698.88;;;14.61;52.51
79686;BME280;69153;47.918;11.428;2024-03-17T08:21:03;95709.13;;;14.97;52.69
79686;BME280;69153;47.918;11.428;2024-03-17T08:23:32;95699.09;;;16.60;48.28
79686;BME280;69153;47.918;11.428;2024-03-17T08:26:00;95700.94;;;17.18;46.85
79686;BME280;69153;47.918;11.428;2024-03-17T08:28:27;95694.81;;;17.72;45.60
79686;BME280;69153;47.918;11.428;2024-03-17T08:30:54;95693.59;;;18.24;44.34
79686;BME280;69153;47.918;11.428;2024-03-17T08:33:21;95691.09;;;18.77;43.14
79686;BME280;69153;47.918;11.428;2024-03-17T08:36:02;95680.06;;;18.99;43.22
79686;BME280;69153;47.918;11.428;2024-03-17T08:38:30;95674.94;;;19.40;41.53
79686;BME280;69153;47.918;11.428;2024-03-17T08:41:07;95687.59;;;20.07;40.11
79686;BME280;69153;47.918;11.428;2024-03-17T08:43:34;95679.84;;;21.05;39.22
79686;BME280;69153;47.918;11.428;2024-03-17T08:46:02;95674.75;;;21.53;36.89
79686;BME280;69153;47.918;11.428;2024-03-17T08:48:30;95668.63;;;21.84;35.83
79686;BME280;69153;47.918;11.428;2024-03-17T08:50:57;95672.72;;;22.00;35.40
79686;BME280;69153;47.918;11.428;2024-03-17T08:53:23;95674.03;;;21.84;36.96
79686;BME280;69153;47.918;11.428;2024-03-17T08:55:50;95671.28;;;22.04;35.11
79686;BME280;69153;47.918;11.428;2024-03-17T08:58:16;95664.06;;;22.70;34.19
79686;BME280;69153;47.918;11.428;2024-03-17T09:00:42;95665.75;;;22.19;34.02
79686;BME280;69153;47.918;11.428;2024-03-17T09:03:09;95667.44;;;23.24;33.13
79686;BME280;69153;47.918;11.428;2024-03-17T09:05:36;95662.28;;;23.09;32.38
79686;BME280;69153;47.918;11.428;2024-03-17T09:08:02;95655.91;;;23.18;32.34
79686;BME280;69153;47.918;11.428;2024-03-17T09:10:28;95650.94;;;22.52;31.84
79686;BME280;69153;47.918;11.428;2024-03-17T09:12:54;95654.28;;;22.78;32.19
79686;BME280;69153;47.918;11.428;2024-03-17T09:15:20;95648.81;;;22.72;32.35
79686;BME280;69153;47.918;11.428;2024-03-17T09:17:46;95653.72;;;23.50;30.44
79686;BME280;69153;47.918;11.428;2024-03-17T09:20:13;95649.34;;;24.31;28.58
79686;BME280;69153;47.918;11.428;2024-03-17T09:22:41;95643.94;;;24.03;29.39
79686;BME280;69153;47.918;11.428;2024-03-17T09:25:10;95650.84;;;24.26;28.76
79686;BME280;69153;47.918;11.428;2024-03-17T09:27:36;95646.78;;;23.10;31.62
79686;BME280;69153;47.918;11.428;2024-03-17T09:30:05;95647.81;;;22.59;30.59
79686;BME280;69153;47.918;11.428;2024-03-17T09:32:37;95642.41;;;21.27;32.62
79686;BME280;69153;47.918;11.428;2024-03-17T09:35:04;95644.97;;;21.68;33.25
79686;BME280;69153;47.918;11.428;2024-03-17T09:37:30;95639.88;;;23.03;29.55
79686;BME280;69153;47.918;11.428;2024-03-17T09:39:57;95647.66;;;23.61;30.07
79686;BME280;69153;47.918;11.428;2024-03-17T09:42:23;95637.94;;;24.54;27.34
79686;BME280;69153;47.918;11.428;2024-03-17T09:44:52;95621.63;;;25.29;27.79
79686;BME280;69153;47.918;11.428;2024-03-17T09:47:20;95627.44;;;25.80;28.50
79686;BME280;69153;47.918;11.428;2024-03-17T09:49:48;95628.41;;;25.06;28.98
79686;BME280;69153;47.918;11.428;2024-03-17T09:52:25;95627.88;;;23.21;30.84
79686;BME280;69153;47.918;11.428;2024-03-17T09:54:58;95632.78;;;22.09;32.18
79686;BME280;69153;47.918;11.428;2024-03-17T09:57:25;95632.75;;;21.21;32.04
79686;BME280;69153;47.918;11.428;2024-03-17T09:59:52;95642.13;;;20.44;33.65
79686;BME280;69153;47.918;11.428;2024-03-17T10:02:19;95629.16;;;21.55;32.02
79686;BME280;69153;47.918;11.428;2024-03-17T10:04:45;95622.94;;;21.75;31.58
79686;BME280;69153;47.918;11.428;2024-03-17T10:07:11;95637.19;;;21.81;30.88
79686;BME280;69153;47.918;11.428;2024-03-17T10:09:37;95625.63;;;22.43;29.15
79686;BME280;69153;47.918;11.428;2024-03-17T10:12:03;95633.97;;;22.99;28.14
79686;BME280;69153;47.918;11.428;2024-03-17T10:14:29;95622.31;;;23.86;26.67
79686;BME280;69153;47.918;11.428;2024-03-17T10:16:54;95621.81;;;23.99;26.41
79686;BME280;69153;47.918;11.428;2024-03-17T10:19:24;95619.28;;;23.28;27.61
79686;BME280;69153;47.918;11.428;2024-03-17T10:21:59;95625.25;;;24.27;27.90
79686;BME280;69153;47.918;11.428;2024-03-17T10:24:29;95621.03;;;24.20;26.09
79686;BME280;69153;47.918;11.428;2024-03-17T10:26:56;95614.56;;;22.95;28.48
79686;BME280;69153;47.918;11.428;2024-03-17T10:29:35;95624.03;;;21.89;30.42
79686;BME280;69153;47.918;11.428;2024-03-17T10:32:12;95619.94;;;22.90;29.06
79686;BME280;69153;47.918;11.428;2024-03-17T10:34:39;95615.66;;;23.81;28.47
79686;BME280;69153;47.918;11.428;2024-03-17T10:39:37;95603.69;;;24.63;27.28
79686;BME280;69153;47.918;11.428;2024-03-17T10:42:05;95609.44;;;24.37;26.61
79686;BME280;69153;47.918;11.428;2024-03-17T10:44:33;95601.63;;;24.80;27.08
79686;BME280;69153;47.918;11.428;2024-03-17T10:47:01;95598.59;;;25.77;24.91
79686;BME280;69153;47.918;11.428;2024-03-17T10:49:31;95590.97;;;25.40;25.23
79686;BME280;69153;47.918;11.428;2024-03-17T10:52:06;95593.09;;;25.17;25.42
79686;BME280;69153;47.918;11.428;2024-03-17T10:54:33;95591.50;;;25.33;25.19
79686;BME280;69153;47.918;11.428;2024-03-17T10:59:47;95590.03;;;27.58;22.06
79686;BME280;69153;47.918;11.428;2024-03-17T11:02:24;95577.56;;;26.75;21.89
79686;BME280;69153;47.918;11.428;2024-03-17T11:04:56;95582.53;;;26.95;21.46
79686;BME280;69153;47.918;11.428;2024-03-17T11:07:23;95580.13;;;26.48;21.71
79686;BME280;69153;47.918;11.428;2024-03-17T11:09:52;95575.19;;;24.45;24.07
79686;BME280;69153;47.918;11.428;2024-03-17T11:18:27;95557.00;;;24.86;24.42
79686;BME280;69153;47.918;11.428;2024-03-17T11:23:33;95564.00;;;22.48;27.94
79686;BME280;69153;47.918;11.428;2024-03-17T11:26:00;95567.66;;;23.21;27.28
79686;BME280;69153;47.918;11.428;2024-03-17T11:28:45;95558.66;;;24.48;26.73
79686;BME280;69153;47.918;11.428;2024-03-17T11:31:36;95564.19;;;24.09;26.00
79686;BME280;69153;47.918;11.428;2024-03-17T11:34:26;95558.81;;;23.76;25.63
79686;BME280;69153;47.918;11.428;2024-03-17T11:36:52;95563.75;;;23.83;26.05
79686;BME280;69153;47.918;11.428;2024-03-17T11:39:19;95552.44;;;23.84;25.86
79686;BME280;69153;47.918;11.428;2024-03-17T11:41:52;95554.91;;;23.71;26.50
79686;BME280;69153;47.918;11.428;2024-03-17T11:46:54;95550.97;;;23.44;27.70
79686;BME280;69153;47.918;11.428;2024-03-17T11:49:27;95552.94;;;23.49;28.29
79686;BME280;69153;47.918;11.428;2024-03-17T11:51:55;95554.03;;;24.38;26.23
79686;BME280;69153;47.918;11.428;2024-03-17T11:54:24;95550.44;;;23.96;26.63
79686;BME280;69153;47.918;11.428;2024-03-17T11:56:54;95543.53;;;22.84;27.91
79686;BME280;69153;47.918;11.428;2024-03-17T11:59:21;95547.94;;;22.81;27.41
79686;BME280;69153;47.918;11.428;2024-03-17T12:01:49;95542.69;;;22.01;28.94
79686;BME280;69153;47.918;11.428;2024-03-17T12:04:17;95542.75;;;21.38;30.15
79686;BME280;69153;47.918;11.428;2024-03-17T12:06:51;95544.28;;;21.19;30.72
79686;BME280;69153;47.918;11.428;2024-03-17T12:09:29;95534.28;;;21.57;30.68
79686;BME280;69153;47.918;11.428;2024-03-17T12:12:03;95537.34;;;21.38;30.73
79686;BME280;69153;47.918;11.428;2024-03-17T12:14:36;95544.38;;;21.04;30.48
79686;BME280;69153;47.918;11.428;2024-03-17T12:17:04;95543.09;;;21.20;30.57
79686;BME280;69153;47.918;11.428;2024-03-17T12:19:30;95528.06;;;20.88;30.46
79686;BME280;69153;47.918;11.428;2024-03-17T12:21:57;95528.91;;;20.74;31.15
79686;BME280;69153;47.918;11.428;2024-03-17T12:24:25;95521.09;;;20.76;31.88
79686;BME280;69153;47.918;11.428;2024-03-17T12:26:53;95526.91;;;20.94;31.15
79686;BME280;69153;47.918;11.428;2024-03-17T12:29:23;95521.88;;;20.82;31.13
79686;BME280;69153;47.918;11.428;2024-03-17T12:31:51;95505.88;;;20.47;31.79
79686;BME280;69153;47.918;11.428;2024-03-17T12:34:19;95503.09;;;20.01;32.00
79686;BME280;69153;47.918;11.428;2024-03-17T12:36:46;95501.13;;;20.01;33.73
79686;BME280;69153;47.918;11.428;2024-03-17T12:39:24;95507.81;;;20.06;34.11
79686;BME280;69153;47.918;11.428;2024-03-17T12:42:02;95503.88;;;19.86;34.54
79686;BME280;69153;47.918;11.428;2024-03-17T12:44:30;95499.88;;;19.96;35.85
79686;BME280;69153;47.918;11.428;2024-03-17T12:47:01;95499.00;;;19.85;36.40
79686;BME280;69153;47.918;11.428;2024-03-17T12:49:29;95498.31;;;19.90;34.98
79686;BME280;69153;47.918;11.428;2024-03-17T12:51:56;95496.31;;;19.85;34.67
79686;BME280;69153;47.918;11.428;2024-03-17T12:54:24;95505.56;;;19.49;35.98
79686;BME280;69153;47.918;11.428;2024-03-17T12:56:51;95504.16;;;19.39;35.84
79686;BME280;69153;47.918;11.428;2024-03-17T12:59:42;95498.16;;;19.29;36.14
79686;BME280;69153;47.918;11.428;2024-03-17T13:02:27;95502.56;;;18.82;37.17
79686;BME280;69153;47.918;11.428;2024-03-17T13:05:25;95503.75;;;18.57;37.49
79686;BME280;69153;47.918;11.428;2024-03-17T13:07:53;95509.00;;;18.61;37.47
79686;BME280;69153;47.918;11.428;2024-03-17T13:10:20;95503.66;;;18.76;36.78
79686;BME280;69153;47.918;11.428;2024-03-17T13:12:47;95505.31;;;18.88;36.64